sensor_id;sensor_type;location;lat;lon;timestamp;P1;durP1;ratioP1;P2;durP2;ratioP2
8909;SDS011;4490;49.072;8.804;2023-02-01T00:01:55;7.03;;;5.40;;
8909;SDS011;4490;49.072;8.804;2023-02-01T00:04:21;5.77;;;5.00;;
8909;SDS011;4490;49.072;8.804;2023-02-01T00:06:46;7.00;;;4.60;;
8909;SDS011;4490;49.072;8.804;2023-02-01T00:09:12;6.87;;;4.27;;
8909;SDS011;4490;49.072;8.804;2023-02-01T00:11:38;7.50;;;5.43;;
8909;SDS011;4490;49.072;8.804;2023-02-01T00:14:04;6.60;;;5.20;;
8909;SDS011;4490;49.072;8.804;2023-02-01T00:16:30;6.97;;;4.97;;
8909;SDS011;4490;49.072;8.804;2023-02-01T00:19:06;9.53;;;5.77;;
8909;SDS011;4490;49.072;8.804;2023-02-01T00:21:35;5.53;;;4.33;;
8909;SDS011;4490;49.072;8.804;2023-02-01T00:24:01;7.77;;;4.57;;
8909;SDS011;4490;49.072;8.804;2023-02-01T00:26:31;6.00;;;4.40;;
8909;SDS011;4490;49.072;8.804;2023-02-01T00:28:58;5.53;;;4.07;;
8909;SDS011;4490;49.072;8.804;2023-02-01T00:31:25;6.83;;;3.60;;
8909;SDS011;4490;49.072;8.804;2023-02-01T00:33:50;5.17;;;3.73;;
8909;SDS011;4490;49.072;8.804;2023-02-01T00:36:16;6.77;;;4.53;;
8909;SDS011;4490;49.072;8.804;2023-02-01T00:38:42;5.90;;;4.57;;
8909;SDS011;4490;49.072;8.804;2023-02-01T00:41:12;6.03;;;4.27;;
8909;SDS011;4490;49.072;8.804;2023-02-01T00:43:40;5.97;;;4.20;;
8909;SDS011;4490;49.072;8.804;2023-02-01T00:46:06;4.60;;;3.63;;
8909;SDS011;4490;49.072;8.804;2023-02-01T00:48:32;4.87;;;4.00;;
8909;SDS011;4490;49.072;8.804;2023-02-01T00:51:00;6.77;;;4.47;;
8909;SDS011;4490;49.072;8.804;2023-02-01T00:53:27;4.77;;;3.47;;
8909;SDS011;4490;49.072;8.804;2023-02-01T00:55:53;5.07;;;3.37;;
8909;SDS011;4490;49.072;8.804;2023-02-01T00:58:19;4.87;;;3.30;;
8909;SDS011;4490;49.072;8.804;2023-02-01T01:00:45;5.20;;;4.17;;
8909;SDS011;4490;49.072;8.804;2023-02-01T01:03:11;6.20;;;4.30;;
8909;SDS011;4490;49.072;8.804;2023-02-01T01:05:44;5.43;;;4.20;;
8909;SDS011;4490;49.072;8.804;2023-02-01T01:08:10;5.60;;;3.93;;
8909;SDS011;4490;49.072;8.804;2023-02-01T01:10:36;4.53;;;4.00;;
8909;SDS011;4490;49.072;8.804;2023-02-01T01:13:02;3.90;;;3.07;;
8909;SDS011;4490;49.072;8.804;2023-02-01T01:15:27;5.33;;;3.67;;
8909;SDS011;4490;49.072;8.804;2023-02-01T01:17:53;4.70;;;3.30;;
8909;SDS011;4490;49.072;8.804;2023-02-01T01:20:18;3.83;;;3.43;;
8909;SDS011;4490;49.072;8.804;2023-02-01T01:22:46;5.80;;;3.60;;
8909;SDS011;4490;49.072;8.804;2023-02-01T01:25:12;5.10;;;3.90;;
8909;SDS011;4490;49.072;8.804;2023-02-01T01:27:38;5.13;;;4.10;;
8909;SDS011;4490;49.072;8.804;2023-02-01T01:30:04;3.83;;;3.43;;
8909;SDS011;4490;49.072;8.804;2023-02-01T01:32:30;6.63;;;3.90;;
8909;SDS011;4490;49.072;8.804;2023-02-01T01:34:56;4.50;;;2.80;;
8909;SDS011;4490;49.072;8.804;2023-02-01T01:37:21;4.03;;;3.53;;
8909;SDS011;4490;49.072;8.804;2023-02-01T01:39:47;6.60;;;4.00;;
8909;SDS011;4490;49.072;8.804;2023-02-01T01:42:12;3.77;;;3.03;;
8909;SDS011;4490;49.072;8.804;2023-02-01T01:47:46;4.53;;;3.80;;
8909;SDS011;4490;49.072;8.804;2023-02-01T01:50:16;5.83;;;3.90;;
8909;SDS011;4490;49.072;8.804;2023-02-01T01:52:46;4.13;;;3.73;;
8909;SDS011;4490;49.072;8.804;2023-02-01T01:55:14;5.03;;;3.80;;
8909;SDS011;4490;49.072;8.804;2023-02-01T01:57:44;4.87;;;3.80;;
8909;SDS011;4490;49.072;8.804;2023-02-01T02:00:15;5.83;;;4.10;;
8909;SDS011;4490;49.072;8.804;2023-02-01T02:02:44;4.93;;;4.10;;
8909;SDS011;4490;49.072;8.804;2023-02-01T02:05:12;6.10;;;4.20;;
8909;SDS011;4490;49.072;8.804;2023-02-01T02:07:40;4.70;;;3.60;;
8909;SDS011;4490;49.072;8.804;2023-02-01T02:10:11;5.03;;;3.90;;
8909;SDS011;4490;49.072;8.804;2023-02-01T02:12:39;5.67;;;4.17;;
8909;SDS011;4490;49.072;8.804;2023-02-01T02:15:07;4.50;;;4.07;;
8909;SDS011;4490;49.072;8.804;2023-02-01T02:26:34;4.43;;;3.70;;
8909;SDS011;4490;49.072;8.804;2023-02-01T02:34:29;3.43;;;2.67;;
8909;SDS011;4490;49.072;8.804;2023-02-01T02:37:08;3.27;;;2.97;;
8909;SDS011;4490;49.072;8.804;2023-02-01T02:45:47;3.60;;;2.90;;
8909;SDS011;4490;49.072;8.804;2023-02-01T02:48:47;3.53;;;2.63;;
8909;SDS011;4490;49.072;8.804;2023-02-01T02:54:33;5.03;;;3.23;;
8909;SDS011;4490;49.072;8.804;2023-02-01T03:00:12;3.00;;;2.67;;
8909;SDS011;4490;49.072;8.804;2023-02-01T03:03:01;3.10;;;2.80;;
8909;SDS011;4490;49.072;8.804;2023-02-01T03:05:45;3.40;;;3.10;;
8909;SDS011;4490;49.072;8.804;2023-02-01T03:08:17;2.90;;;2.70;;
8909;SDS011;4490;49.072;8.804;2023-02-01T03:18:28;3.87;;;3.27;;
8909;SDS011;4490;49.072;8.804;2023-02-01T03:21:04;3.80;;;2.87;;
8909;SDS011;4490;49.072;8.804;2023-02-01T03:23:34;3.83;;;3.43;;
8909;SDS011;4490;49.072;8.804;2023-02-01T03:26:03;3.97;;;3.57;;
8909;SDS011;4490;49.072;8.804;2023-02-01T03:28:32;3.77;;;3.00;;
8909;SDS011;4490;49.072;8.804;2023-02-01T03:30:59;4.03;;;3.10;;
8909;SDS011;4490;49.072;8.804;2023-02-01T03:33:25;2.80;;;2.60;;
8909;SDS011;4490;49.072;8.804;2023-02-01T03:36:02;4.17;;;3.23;;
8909;SDS011;4490;49.072;8.804;2023-02-01T03:39:02;5.17;;;3.30;;
8909;SDS011;4490;49.072;8.804;2023-02-01T03:44:21;2.80;;;2.40;;
8909;SDS011;4490;49.072;8.804;2023-02-01T03:49:47;4.37;;;2.90;;
8909;SDS011;4490;49.072;8.804;2023-02-01T03:52:20;4.40;;;3.17;;
8909;SDS011;4490;49.072;8.804;2023-02-01T03:54:50;3.80;;;3.10;;
8909;SDS011;4490;49.072;8.804;2023-02-01T03:57:18;4.80;;;3.30;;
8909;SDS011;4490;49.072;8.804;2023-02-01T03:59:48;4.53;;;3.10;;
8909;SDS011;4490;49.072;8.804;2023-02-01T04:02:15;5.00;;;3.10;;
8909;SDS011;4490;49.072;8.804;2023-02-01T04:04:41;5.27;;;3.50;;
8909;SDS011;4490;49.072;8.804;2023-02-01T04:07:06;4.63;;;3.20;;
8909;SDS011;4490;49.072;8.804;2023-02-01T04:09:32;2.80;;;2.60;;
8909;SDS011;4490;49.072;8.804;2023-02-01T04:11:57;3.77;;;2.90;;
8909;SDS011;4490;49.072;8.804;2023-02-01T04:14:23;3.53;;;3.00;;
8909;SDS011;4490;49.072;8.804;2023-02-01T04:16:48;4.70;;;3.23;;
8909;SDS011;4490;49.072;8.804;2023-02-01T04:19:14;4.73;;;3.20;;
8909;SDS011;4490;49.072;8.804;2023-02-01T04:21:40;4.17;;;3.70;;
8909;SDS011;4490;49.072;8.804;2023-02-01T04:24:05;6.40;;;2.73;;
8909;SDS011;4490;49.072;8.804;2023-02-01T04:26:31;3.60;;;3.30;;
8909;SDS011;4490;49.072;8.804;2023-02-01T04:28:57;4.47;;;3.63;;
8909;SDS011;4490;49.072;8.804;2023-02-01T04:31:22;3.73;;;3.00;;
8909;SDS011;4490;49.072;8.804;2023-02-01T04:33:52;3.77;;;3.03;;
8909;SDS011;4490;49.072;8.804;2023-02-01T04:36:19;3.93;;;3.37;;
8909;SDS011;4490;49.072;8.804;2023-02-01T04:38:49;4.00;;;3.23;;
8909;SDS011;4490;49.072;8.804;2023-02-01T04:41:15;4.30;;;3.80;;
8909;SDS011;4490;49.072;8.804;2023-02-01T04:43:47;4.53;;;3.83;;
8909;SDS011;4490;49.072;8.804;2023-02-01T04:46:13;3.50;;;3.20;;
8909;SDS011;4490;49.072;8.804;2023-02-01T04:48:39;3.77;;;3.47;;
8909;SDS011;4490;49.072;8.804;2023-02-01T04:51:05;5.17;;;3.50;;
8909;SDS011;4490;49.072;8.804;2023-02-01T04:53:31;3.73;;;3.13;;
8909;SDS011;4490;49.072;8.804;2023-02-01T04:55:57;4.37;;;3.37;;
8909;SDS011;4490;49.072;8.804;2023-02-01T04:58:22;4.77;;;3.30;;
8909;SDS011;4490;49.072;8.804;2023-02-01T05:00:48;4.20;;;3.03;;
8909;SDS011;4490;49.072;8.804;2023-02-01T05:03:14;5.20;;;3.60;;
8909;SDS011;4490;49.072;8.804;2023-02-01T05:05:40;3.73;;;3.07;;
8909;SDS011;4490;49.072;8.804;2023-02-01T05:08:06;4.10;;;3.40;;
8909;SDS011;4490;49.072;8.804;2023-02-01T05:10:31;6.10;;;3.80;;
8909;SDS011;4490;49.072;8.804;2023-02-01T05:12:57;3.27;;;2.93;;
8909;SDS011;4490;49.072;8.804;2023-02-01T05:15:41;3.80;;;3.17;;
8909;SDS011;4490;49.072;8.804;2023-02-01T05:18:07;4.47;;;3.23;;
8909;SDS011;4490;49.072;8.804;2023-02-01T05:20:32;3.37;;;3.07;;
8909;SDS011;4490;49.072;8.804;2023-02-01T05:22:58;5.33;;;3.50;;
8909;SDS011;4490;49.072;8.804;2023-02-01T05:25:23;3.87;;;3.47;;
8909;SDS011;4490;49.072;8.804;2023-02-01T05:27:49;3.20;;;2.90;;
8909;SDS011;4490;49.072;8.804;2023-02-01T05:30:15;4.33;;;3.13;;
8909;SDS011;4490;49.072;8.804;2023-02-01T05:32:40;3.77;;;2.63;;
8909;SDS011;4490;49.072;8.804;2023-02-01T05:35:06;6.47;;;3.13;;
8909;SDS011;4490;49.072;8.804;2023-02-01T05:37:32;3.20;;;2.90;;
8909;SDS011;4490;49.072;8.804;2023-02-01T05:39:58;4.30;;;2.63;;
8909;SDS011;4490;49.072;8.804;2023-02-01T05:42:23;3.50;;;3.10;;
8909;SDS011;4490;49.072;8.804;2023-02-01T05:44:49;3.77;;;2.50;;
8909;SDS011;4490;49.072;8.804;2023-02-01T05:47:14;4.17;;;3.10;;
8909;SDS011;4490;49.072;8.804;2023-02-01T05:49:40;3.57;;;3.23;;
8909;SDS011;4490;49.072;8.804;2023-02-01T05:52:05;6.57;;;4.00;;
8909;SDS011;4490;49.072;8.804;2023-02-01T05:54:31;6.07;;;3.80;;
8909;SDS011;4490;49.072;8.804;2023-02-01T05:56:57;4.37;;;3.83;;
8909;SDS011;4490;49.072;8.804;2023-02-01T05:59:22;4.60;;;3.67;;
8909;SDS011;4490;49.072;8.804;2023-02-01T06:01:48;5.27;;;3.40;;
8909;SDS011;4490;49.072;8.804;2023-02-01T06:04:13;6.57;;;4.07;;
8909;SDS011;4490;49.072;8.804;2023-02-01T06:06:39;7.87;;;4.40;;
8909;SDS011;4490;49.072;8.804;2023-02-01T06:09:05;6.13;;;4.57;;
8909;SDS011;4490;49.072;8.804;2023-02-01T06:11:31;6.43;;;4.07;;
8909;SDS011;4490;49.072;8.804;2023-02-01T06:13:56;6.73;;;4.80;;
8909;SDS011;4490;49.072;8.804;2023-02-01T06:16:22;9.03;;;4.50;;
8909;SDS011;4490;49.072;8.804;2023-02-01T06:18:48;10.70;;;5.53;;
8909;SDS011;4490;49.072;8.804;2023-02-01T06:21:14;6.63;;;4.87;;
8909;SDS011;4490;49.072;8.804;2023-02-01T06:23:48;8.40;;;5.23;;
8909;SDS011;4490;49.072;8.804;2023-02-01T06:26:17;10.87;;;5.50;;
8909;SDS011;4490;49.072;8.804;2023-02-01T06:28:43;6.37;;;4.33;;
8909;SDS011;4490;49.072;8.804;2023-02-01T06:31:09;8.40;;;5.17;;
8909;SDS011;4490;49.072;8.804;2023-02-01T06:33:35;8.10;;;5.47;;
8909;SDS011;4490;49.072;8.804;2023-02-01T06:36:01;8.87;;;4.97;;
8909;SDS011;4490;49.072;8.804;2023-02-01T06:38:29;6.80;;;5.03;;
8909;SDS011;4490;49.072;8.804;2023-02-01T06:40:56;7.77;;;5.40;;
8909;SDS011;4490;49.072;8.804;2023-02-01T06:43:23;8.23;;;5.60;;
8909;SDS011;4490;49.072;8.804;2023-02-01T06:45:50;9.37;;;5.77;;
8909;SDS011;4490;49.072;8.804;2023-02-01T06:48:16;8.77;;;5.03;;
8909;SDS011;4490;49.072;8.804;2023-02-01T06:50:42;10.50;;;5.60;;
8909;SDS011;4490;49.072;8.804;2023-02-01T06:53:08;10.27;;;4.90;;
8909;SDS011;4490;49.072;8.804;2023-02-01T06:55:34;7.60;;;5.70;;
8909;SDS011;4490;49.072;8.804;2023-02-01T06:57:59;8.37;;;5.57;;
8909;SDS011;4490;49.072;8.804;2023-02-01T07:00:27;8.67;;;5.60;;
8909;SDS011;4490;49.072;8.804;2023-02-01T07:02:53;8.57;;;5.50;;
8909;SDS011;4490;49.072;8.804;2023-02-01T07:05:19;14.00;;;6.53;;
8909;SDS011;4490;49.072;8.804;2023-02-01T07:07:44;9.43;;;5.87;;
8909;SDS011;4490;49.072;8.804;2023-02-01T07:10:10;10.87;;;5.90;;
8909;SDS011;4490;49.072;8.804;2023-02-01T07:12:36;7.53;;;5.70;;
8909;SDS011;4490;49.072;8.804;2023-02-01T07:15:02;11.87;;;5.93;;
8909;SDS011;4490;49.072;8.804;2023-02-01T07:17:28;10.10;;;6.63;;
8909;SDS011;4490;49.072;8.804;2023-02-01T07:19:54;10.57;;;5.97;;
8909;SDS011;4490;49.072;8.804;2023-02-01T07:22:20;10.57;;;6.60;;
8909;SDS011;4490;49.072;8.804;2023-02-01T07:24:46;10.03;;;6.03;;
8909;SDS011;4490;49.072;8.804;2023-02-01T07:27:11;11.27;;;6.13;;
8909;SDS011;4490;49.072;8.804;2023-02-01T07:29:37;10.70;;;6.30;;
8909;SDS011;4490;49.072;8.804;2023-02-01T07:32:03;9.83;;;6.43;;
8909;SDS011;4490;49.072;8.804;2023-02-01T07:34:29;10.37;;;6.03;;
8909;SDS011;4490;49.072;8.804;2023-02-01T07:36:55;14.63;;;7.20;;
8909;SDS011;4490;49.072;8.804;2023-02-01T07:39:21;7.63;;;5.67;;
8909;SDS011;4490;49.072;8.804;2023-02-01T07:41:47;9.97;;;5.83;;
8909;SDS011;4490;49.072;8.804;2023-02-01T07:44:13;12.00;;;6.53;;
8909;SDS011;4490;49.072;8.804;2023-02-01T07:46:38;10.30;;;6.27;;
8909;SDS011;4490;49.072;8.804;2023-02-01T07:49:04;10.57;;;5.93;;
8909;SDS011;4490;49.072;8.804;2023-02-01T07:51:30;11.13;;;6.97;;
8909;SDS011;4490;49.072;8.804;2023-02-01T07:53:56;10.63;;;6.33;;
8909;SDS011;4490;49.072;8.804;2023-02-01T07:56:21;11.47;;;6.27;;
8909;SDS011;4490;49.072;8.804;2023-02-01T07:58:48;9.93;;;5.43;;
8909;SDS011;4490;49.072;8.804;2023-02-01T08:01:20;12.73;;;5.73;;
8909;SDS011;4490;49.072;8.804;2023-02-01T08:03:51;8.90;;;6.53;;
8909;SDS011;4490;49.072;8.804;2023-02-01T08:06:24;10.63;;;6.00;;
8909;SDS011;4490;49.072;8.804;2023-02-01T08:08:51;10.13;;;5.90;;
8909;SDS011;4490;49.072;8.804;2023-02-01T08:11:17;7.67;;;5.30;;
8909;SDS011;4490;49.072;8.804;2023-02-01T08:13:44;10.23;;;5.13;;
8909;SDS011;4490;49.072;8.804;2023-02-01T08:16:10;10.97;;;5.43;;
8909;SDS011;4490;49.072;8.804;2023-02-01T08:18:37;12.27;;;5.37;;
8909;SDS011;4490;49.072;8.804;2023-02-01T08:21:23;10.27;;;5.70;;
8909;SDS011;4490;49.072;8.804;2023-02-01T08:23:50;9.30;;;4.53;;
8909;SDS011;4490;49.072;8.804;2023-02-01T08:28:45;10.50;;;5.00;;
8909;SDS011;4490;49.072;8.804;2023-02-01T08:31:14;8.37;;;4.60;;
8909;SDS011;4490;49.072;8.804;2023-02-01T08:33:42;9.30;;;4.53;;
8909;SDS011;4490;49.072;8.804;2023-02-01T08:36:12;12.80;;;5.13;;
8909;SDS011;4490;49.072;8.804;2023-02-01T08:38:38;9.33;;;4.97;;
8909;SDS011;4490;49.072;8.804;2023-02-01T08:41:05;10.93;;;4.53;;
8909;SDS011;4490;49.072;8.804;2023-02-01T08:43:39;14.97;;;5.10;;
8909;SDS011;4490;49.072;8.804;2023-02-01T08:46:05;8.87;;;4.40;;
8909;SDS011;4490;49.072;8.804;2023-02-01T08:48:31;9.50;;;4.43;;
8909;SDS011;4490;49.072;8.804;2023-02-01T08:51:06;8.17;;;4.30;;
8909;SDS011;4490;49.072;8.804;2023-02-01T08:53:37;11.93;;;4.53;;
8909;SDS011;4490;49.072;8.804;2023-02-01T08:56:06;6.03;;;3.97;;
8909;SDS011;4490;49.072;8.804;2023-02-01T08:58:32;8.17;;;4.07;;
8909;SDS011;4490;49.072;8.804;2023-02-01T09:01:05;6.53;;;4.00;;
8909;SDS011;4490;49.072;8.804;2023-02-01T09:03:32;7.83;;;3.50;;
8909;SDS011;4490;49.072;8.804;2023-02-01T09:06:04;6.70;;;4.27;;
8909;SDS011;4490;49.072;8.804;2023-02-01T09:08:31;9.07;;;4.03;;
8909;SDS011;4490;49.072;8.804;2023-02-01T09:10:58;6.83;;;3.40;;
8909;SDS011;4490;49.072;8.804;2023-02-01T09:13:29;10.50;;;5.20;;
8909;SDS011;4490;49.072;8.804;2023-02-01T09:15:54;9.13;;;4.23;;
8909;SDS011;4490;49.072;8.804;2023-02-01T09:18:20;13.40;;;4.70;;
8909;SDS011;4490;49.072;8.804;2023-02-01T09:20:46;9.33;;;4.10;;
8909;SDS011;4490;49.072;8.804;2023-02-01T09:23:11;11.70;;;4.43;;
8909;SDS011;4490;49.072;8.804;2023-02-01T09:25:37;7.23;;;3.73;;
8909;SDS011;4490;49.072;8.804;2023-02-01T09:28:03;8.93;;;3.70;;
8909;SDS011;4490;49.072;8.804;2023-02-01T09:30:31;7.67;;;3.77;;
8909;SDS011;4490;49.072;8.804;2023-02-01T09:32:57;8.83;;;3.83;;
8909;SDS011;4490;49.072;8.804;2023-02-01T09:35:23;9.90;;;4.20;;
8909;SDS011;4490;49.072;8.804;2023-02-01T09:37:48;8.37;;;3.83;;
8909;SDS011;4490;49.072;8.804;2023-02-01T09:40:15;6.63;;;3.80;;
8909;SDS011;4490;49.072;8.804;2023-02-01T09:47:51;11.30;;;3.90;;
8909;SDS011;4490;49.072;8.804;2023-02-01T09:50:28;10.50;;;4.27;;
8909;SDS011;4490;49.072;8.804;2023-02-01T09:55:36;10.23;;;3.87;;
8909;SDS011;4490;49.072;8.804;2023-02-01T10:00:38;8.03;;;3.70;;
8909;SDS011;4490;49.072;8.804;2023-02-01T10:03:04;9.37;;;3.83;;
8909;SDS011;4490;49.072;8.804;2023-02-01T10:11:29;8.50;;;3.43;;
8909;SDS011;4490;49.072;8.804;2023-02-01T10:22:42;8.57;;;3.70;;
8909;SDS011;4490;49.072;8.804;2023-02-01T10:27:48;8.57;;;3.53;;
8909;SDS011;4490;49.072;8.804;2023-02-01T10:30:25;9.23;;;3.43;;
8909;SDS011;4490;49.072;8.804;2023-02-01T10:32:56;7.20;;;3.47;;
8909;SDS011;4490;49.072;8.804;2023-02-01T10:35:58;9.73;;;3.27;;
8909;SDS011;4490;49.072;8.804;2023-02-01T10:38:36;12.03;;;4.13;;
8909;SDS011;4490;49.072;8.804;2023-02-01T10:41:04;8.87;;;3.23;;
8909;SDS011;4490;49.072;8.804;2023-02-01T10:43:51;9.23;;;3.50;;
8909;SDS011;4490;49.072;8.804;2023-02-01T10:46:20;9.83;;;4.00;;
8909;SDS011;4490;49.072;8.804;2023-02-01T10:48:48;12.07;;;4.83;;
8909;SDS011;4490;49.072;8.804;2023-02-01T10:51:27;11.50;;;3.50;;
8909;SDS011;4490;49.072;8.804;2023-02-01T10:54:18;11.73;;;3.80;;
8909;SDS011;4490;49.072;8.804;2023-02-01T10:56:46;11.27;;;4.00;;
8909;SDS011;4490;49.072;8.804;2023-02-01T10:59:20;7.53;;;3.30;;
8909;SDS011;4490;49.072;8.804;2023-02-01T11:01:49;13.07;;;4.00;;
8909;SDS011;4490;49.072;8.804;2023-02-01T11:04:22;10.03;;;3.90;;
8909;SDS011;4490;49.072;8.804;2023-02-01T11:06:52;8.40;;;3.60;;
8909;SDS011;4490;49.072;8.804;2023-02-01T11:09:30;11.50;;;3.47;;
8909;SDS011;4490;49.072;8.804;2023-02-01T11:11:57;11.13;;;3.43;;
8909;SDS011;4490;49.072;8.804;2023-02-01T11:16:52;14.17;;;4.00;;
8909;SDS011;4490;49.072;8.804;2023-02-01T11:19:29;9.27;;;3.80;;
8909;SDS011;4490;49.072;8.804;2023-02-01T11:21:55;10.07;;;3.93;;
8909;SDS011;4490;49.072;8.804;2023-02-01T11:24:28;11.20;;;3.83;;
8909;SDS011;4490;49.072;8.804;2023-02-01T11:27:01;8.47;;;3.30;;
8909;SDS011;4490;49.072;8.804;2023-02-01T11:29:38;7.13;;;3.47;;
8909;SDS011;4490;49.072;8.804;2023-02-01T11:32:09;8.73;;;3.43;;
8909;SDS011;4490;49.072;8.804;2023-02-01T11:37:04;7.90;;;3.70;;
8909;SDS011;4490;49.072;8.804;2023-02-01T11:39:52;6.27;;;2.83;;
8909;SDS011;4490;49.072;8.804;2023-02-01T11:42:23;9.43;;;3.50;;
8909;SDS011;4490;49.072;8.804;2023-02-01T11:44:50;10.73;;;3.60;;
8909;SDS011;4490;49.072;8.804;2023-02-01T11:47:26;14.43;;;3.87;;
8909;SDS011;4490;49.072;8.804;2023-02-01T11:49:59;9.23;;;3.53;;
8909;SDS011;4490;49.072;8.804;2023-02-01T12:08:44;8.47;;;3.43;;
8909;SDS011;4490;49.072;8.804;2023-02-01T12:33:21;8.27;;;2.97;;
8909;SDS011;4490;49.072;8.804;2023-02-01T12:38:48;8.63;;;3.73;;
8909;SDS011;4490;49.072;8.804;2023-02-01T12:43:57;7.50;;;3.17;;
8909;SDS011;4490;49.072;8.804;2023-02-01T12:49:06;11.37;;;3.87;;
8909;SDS011;4490;49.072;8.804;2023-02-01T12:51:45;8.70;;;3.67;;
8909;SDS011;4490;49.072;8.804;2023-02-01T12:54:21;9.23;;;3.40;;
8909;SDS011;4490;49.072;8.804;2023-02-01T12:57:00;14.57;;;4.60;;
8909;SDS011;4490;49.072;8.804;2023-02-01T12:59:51;9.40;;;3.63;;
8909;SDS011;4490;49.072;8.804;2023-02-01T13:02:42;9.67;;;3.63;;
8909;SDS011;4490;49.072;8.804;2023-02-01T13:10:33;11.10;;;3.40;;
8909;SDS011;4490;49.072;8.804;2023-02-01T13:15:43;15.10;;;3.77;;
8909;SDS011;4490;49.072;8.804;2023-02-01T13:18:17;12.50;;;3.40;;
8909;SDS011;4490;49.072;8.804;2023-02-01T13:23:46;11.53;;;3.83;;
8909;SDS011;4490;49.072;8.804;2023-02-01T13:26:13;12.43;;;4.40;;
8909;SDS011;4490;49.072;8.804;2023-02-01T13:39:48;9.77;;;3.43;;
8909;SDS011;4490;49.072;8.804;2023-02-01T13:42:23;8.60;;;2.87;;
8909;SDS011;4490;49.072;8.804;2023-02-01T13:45:03;11.90;;;3.67;;
8909;SDS011;4490;49.072;8.804;2023-02-01T13:47:42;9.67;;;3.67;;
8909;SDS011;4490;49.072;8.804;2023-02-01T13:50:18;12.60;;;3.73;;
8909;SDS011;4490;49.072;8.804;2023-02-01T13:52:58;12.40;;;3.27;;
8909;SDS011;4490;49.072;8.804;2023-02-01T13:55:37;11.07;;;3.33;;
8909;SDS011;4490;49.072;8.804;2023-02-01T13:58:10;10.80;;;4.00;;
8909;SDS011;4490;49.072;8.804;2023-02-01T14:00:41;11.07;;;3.73;;
8909;SDS011;4490;49.072;8.804;2023-02-01T14:08:22;18.83;;;4.43;;
8909;SDS011;4490;49.072;8.804;2023-02-01T14:11:00;8.33;;;3.73;;
8909;SDS011;4490;49.072;8.804;2023-02-01T14:13:27;10.07;;;3.10;;
8909;SDS011;4490;49.072;8.804;2023-02-01T14:21:16;7.70;;;3.50;;
8909;SDS011;4490;49.072;8.804;2023-02-01T14:26:21;11.67;;;3.33;;
8909;SDS011;4490;49.072;8.804;2023-02-01T14:33:57;10.87;;;3.53;;
8909;SDS011;4490;49.072;8.804;2023-02-01T14:36:25;5.87;;;2.67;;
8909;SDS011;4490;49.072;8.804;2023-02-01T14:39:03;14.27;;;3.47;;
8909;SDS011;4490;49.072;8.804;2023-02-01T14:49:34;15.27;;;3.57;;
8909;SDS011;4490;49.072;8.804;2023-02-01T14:52:19;10.70;;;3.63;;
8909;SDS011;4490;49.072;8.804;2023-02-01T14:54:49;12.83;;;3.80;;
8909;SDS011;4490;49.072;8.804;2023-02-01T14:57:20;11.23;;;4.20;;
8909;SDS011;4490;49.072;8.804;2023-02-01T14:59:53;11.23;;;3.83;;
8909;SDS011;4490;49.072;8.804;2023-02-01T15:02:25;12.47;;;3.93;;
8909;SDS011;4490;49.072;8.804;2023-02-01T15:04:55;14.10;;;3.50;;
8909;SDS011;4490;49.072;8.804;2023-02-01T15:07:22;14.37;;;3.93;;
8909;SDS011;4490;49.072;8.804;2023-02-01T15:09:50;13.50;;;4.37;;
8909;SDS011;4490;49.072;8.804;2023-02-01T15:12:22;11.37;;;3.57;;
8909;SDS011;4490;49.072;8.804;2023-02-01T15:17:41;12.17;;;3.60;;
8909;SDS011;4490;49.072;8.804;2023-02-01T15:20:14;14.60;;;3.90;;
8909;SDS011;4490;49.072;8.804;2023-02-01T15:22:52;11.83;;;3.23;;
8909;SDS011;4490;49.072;8.804;2023-02-01T15:25:21;8.00;;;3.13;;
8909;SDS011;4490;49.072;8.804;2023-02-01T15:27:49;10.43;;;3.60;;
8909;SDS011;4490;49.072;8.804;2023-02-01T15:30:19;10.17;;;3.40;;
8909;SDS011;4490;49.072;8.804;2023-02-01T15:32:50;11.57;;;3.10;;
8909;SDS011;4490;49.072;8.804;2023-02-01T15:35:37;14.53;;;3.80;;
8909;SDS011;4490;49.072;8.804;2023-02-01T15:43:48;14.33;;;3.60;;
8909;SDS011;4490;49.072;8.804;2023-02-01T15:51:54;9.60;;;3.27;;
8909;SDS011;4490;49.072;8.804;2023-02-01T15:54:25;12.83;;;3.80;;
8909;SDS011;4490;49.072;8.804;2023-02-01T15:57:04;12.27;;;3.40;;
8909;SDS011;4490;49.072;8.804;2023-02-01T15:59:31;11.53;;;3.50;;
8909;SDS011;4490;49.072;8.804;2023-02-01T16:02:02;9.07;;;2.80;;
8909;SDS011;4490;49.072;8.804;2023-02-01T16:04:28;11.00;;;3.40;;
8909;SDS011;4490;49.072;8.804;2023-02-01T16:07:01;12.30;;;3.20;;
8909;SDS011;4490;49.072;8.804;2023-02-01T16:09:39;9.23;;;3.40;;
8909;SDS011;4490;49.072;8.804;2023-02-01T16:12:23;14.10;;;3.50;;
8909;SDS011;4490;49.072;8.804;2023-02-01T16:15:10;9.73;;;3.40;;
8909;SDS011;4490;49.072;8.804;2023-02-01T16:17:36;11.37;;;3.30;;
8909;SDS011;4490;49.072;8.804;2023-02-01T16:20:02;10.10;;;3.57;;
8909;SDS011;4490;49.072;8.804;2023-02-01T16:22:29;13.33;;;3.43;;
8909;SDS011;4490;49.072;8.804;2023-02-01T16:24:54;16.90;;;4.00;;
8909;SDS011;4490;49.072;8.804;2023-02-01T16:27:20;11.80;;;4.00;;
8909;SDS011;4490;49.072;8.804;2023-02-01T16:29:47;8.63;;;2.83;;
8909;SDS011;4490;49.072;8.804;2023-02-01T16:32:15;10.33;;;2.90;;
8909;SDS011;4490;49.072;8.804;2023-02-01T16:34:43;11.77;;;3.40;;
8909;SDS011;4490;49.072;8.804;2023-02-01T16:37:11;10.70;;;3.20;;
8909;SDS011;4490;49.072;8.804;2023-02-01T16:39:43;12.33;;;3.53;;
8909;SDS011;4490;49.072;8.804;2023-02-01T16:42:11;11.00;;;3.50;;
8909;SDS011;4490;49.072;8.804;2023-02-01T16:44:38;10.40;;;3.67;;
8909;SDS011;4490;49.072;8.804;2023-02-01T16:47:09;10.27;;;3.70;;
8909;SDS011;4490;49.072;8.804;2023-02-01T16:49:40;12.67;;;3.13;;
8909;SDS011;4490;49.072;8.804;2023-02-01T16:52:08;11.47;;;3.43;;
8909;SDS011;4490;49.072;8.804;2023-02-01T16:54:45;9.40;;;3.23;;
8909;SDS011;4490;49.072;8.804;2023-02-01T16:57:12;7.90;;;3.40;;
8909;SDS011;4490;49.072;8.804;2023-02-01T16:59:39;11.80;;;3.60;;
8909;SDS011;4490;49.072;8.804;2023-02-01T17:02:05;13.07;;;3.70;;
8909;SDS011;4490;49.072;8.804;2023-02-01T17:04:34;11.70;;;3.67;;
8909;SDS011;4490;49.072;8.804;2023-02-01T17:07:00;14.13;;;4.10;;
8909;SDS011;4490;49.072;8.804;2023-02-01T17:09:34;18.40;;;4.07;;
8909;SDS011;4490;49.072;8.804;2023-02-01T17:12:01;11.80;;;3.70;;
8909;SDS011;4490;49.072;8.804;2023-02-01T17:14:29;10.93;;;3.10;;
8909;SDS011;4490;49.072;8.804;2023-02-01T17:16:56;9.97;;;3.20;;
8909;SDS011;4490;49.072;8.804;2023-02-01T17:19:23;9.30;;;3.97;;
8909;SDS011;4490;49.072;8.804;2023-02-01T17:21:50;12.07;;;3.33;;
8909;SDS011;4490;49.072;8.804;2023-02-01T17:24:20;11.63;;;3.67;;
8909;SDS011;4490;49.072;8.804;2023-02-01T17:26:49;14.07;;;3.40;;
8909;SDS011;4490;49.072;8.804;2023-02-01T17:29:16;11.40;;;3.50;;
8909;SDS011;4490;49.072;8.804;2023-02-01T17:31:43;7.93;;;2.97;;
8909;SDS011;4490;49.072;8.804;2023-02-01T17:34:13;10.93;;;3.87;;
8909;SDS011;4490;49.072;8.804;2023-02-01T17:36:40;9.37;;;3.20;;
8909;SDS011;4490;49.072;8.804;2023-02-01T17:39:07;9.57;;;3.67;;
8909;SDS011;4490;49.072;8.804;2023-02-01T17:41:33;10.13;;;3.27;;
8909;SDS011;4490;49.072;8.804;2023-02-01T17:44:00;13.93;;;5.97;;
8909;SDS011;4490;49.072;8.804;2023-02-01T17:46:26;12.00;;;3.73;;
8909;SDS011;4490;49.072;8.804;2023-02-01T17:48:52;11.53;;;3.40;;
8909;SDS011;4490;49.072;8.804;2023-02-01T17:51:19;8.13;;;3.37;;
8909;SDS011;4490;49.072;8.804;2023-02-01T17:53:51;18.70;;;4.53;;
8909;SDS011;4490;49.072;8.804;2023-02-01T17:56:20;11.73;;;3.17;;
8909;SDS011;4490;49.072;8.804;2023-02-01T17:58:47;8.33;;;3.13;;
8909;SDS011;4490;49.072;8.804;2023-02-01T18:01:17;11.67;;;3.67;;
8909;SDS011;4490;49.072;8.804;2023-02-01T18:03:45;11.57;;;3.67;;
8909;SDS011;4490;49.072;8.804;2023-02-01T18:06:17;9.93;;;3.10;;
8909;SDS011;4490;49.072;8.804;2023-02-01T18:08:45;17.70;;;3.50;;
8909;SDS011;4490;49.072;8.804;2023-02-01T18:11:12;9.07;;;3.33;;
8909;SDS011;4490;49.072;8.804;2023-02-01T18:13:40;11.90;;;3.10;;
8909;SDS011;4490;49.072;8.804;2023-02-01T18:16:09;7.43;;;3.23;;
8909;SDS011;4490;49.072;8.804;2023-02-01T18:18:43;9.63;;;3.50;;
8909;SDS011;4490;49.072;8.804;2023-02-01T18:21:09;7.60;;;2.77;;
8909;SDS011;4490;49.072;8.804;2023-02-01T18:23:35;11.77;;;3.63;;
8909;SDS011;4490;49.072;8.804;2023-02-01T18:26:00;16.70;;;4.10;;
8909;SDS011;4490;49.072;8.804;2023-02-01T18:28:29;14.93;;;4.00;;
8909;SDS011;4490;49.072;8.804;2023-02-01T18:30:54;12.57;;;3.73;;